Time;durP1;ratioP1;P1;durP2;ratioP2;P2;SDS_P1;SDS_P2;PMS_P1;PMS_P2;Temp;Humidity;BMP_temperature;BMP_pressure;BME280_temperature;BME280_humidity;BME280_pressure;Samples;Min_cycle;Max_cycle;Signal;HPM_P1;HPM_P2
2023/08/09 00:01:49;;;;;;;1.50;0.90;;;16.20;98.20;;;;;;5043825;28;20708;-83
2023/08/09 00:04:16;;;;;;;1.50;1.00;;;16.20;98.20;;;;;;5066488;28;20463;-82
2023/08/09 00:06:44;;;;;;;1.50;1.00;;;16.20;98.20;;;;;;5046950;28;20470;-81
2023/08/09 00:09:10;;;;;;;2.80;2.50;;;16.20;98.20;;;;;;5066001;28;20466;-85
2023/08/09 00:11:37;;;;;;;1.50;0.90;;;16.20;98.20;;;;;;5042434;28;20482;-82
2023/08/09 00:14:05;;;;;;;1.50;1.00;;;16.30;98.20;;;;;;5065598;28;20461;-83
2023/08/09 00:16:31;;;;;;;1.50;0.97;;;16.30;98.20;;;;;;5043257;28;21008;-80
2023/08/09 00:18:58;;;;;;;1.50;0.90;;;16.30;98.20;;;;;;5059016;28;20472;-82
2023/08/09 00:21:25;;;;;;;1.50;0.90;;;16.30;98.20;;;;;;5050030;28;20857;-82
2023/08/09 00:23:53;;;;;;;1.50;1.00;;;16.30;98.20;;;;;;5053044;28;20473;-81
2023/08/09 00:26:20;;;;;;;1.50;0.90;;;16.30;98.20;;;;;;5043495;28;20878;-82
2023/08/09 00:28:47;;;;;;;1.50;1.00;;;16.30;98.20;;;;;;5059746;28;20464;-81
2023/08/09 00:31:14;;;;;;;1.50;0.90;;;16.30;98.20;;;;;;5038067;28;20552;-79
2023/08/09 00:33:40;;;;;;;1.50;0.90;;;16.30;98.20;;;;;;5068081;28;20845;-81
2023/08/09 00:36:07;;;;;;;1.53;1.00;;;16.30;98.20;;;;;;5053105;28;20614;-81
2023/08/09 00:38:34;;;;;;;1.50;0.90;;;16.30;98.20;;;;;;5055556;28;20625;-82
2023/08/09 00:41:02;;;;;;;1.50;0.90;;;16.30;98.20;;;;;;5047541;28;20490;-79
2023/08/09 00:43:29;;;;;;;1.50;1.00;;;16.30;98.20;;;;;;5060072;28;20485;-82
2023/08/09 00:45:56;;;;;;;1.50;1.00;;;16.30;98.20;;;;;;5052739;28;20727;-81
2023/08/09 00:48:24;;;;;;;1.50;1.00;;;16.30;98.20;;;;;;5053958;28;20466;-80
2023/08/09 00:50:51;;;;;;;1.50;0.90;;;16.30;98.20;;;;;;5058495;28;20460;-79
2023/08/09 00:53:18;;;;;;;1.50;1.00;;;16.30;98.20;;;;;;5060620;28;20510;-82
2023/08/09 00:55:45;;;;;;;1.50;1.00;;;16.30;98.20;;;;;;5054969;28;20862;-81
2023/08/09 00:58:13;;;;;;;1.50;0.90;;;16.30;98.20;;;;;;5036628;28;20481;-80
2023/08/09 01:00:40;;;;;;;1.57;1.00;;;16.30;98.20;;;;;;5064095;28;20486;-81
2023/08/09 01:03:07;;;;;;;1.60;1.07;;;16.40;98.20;;;;;;5048965;28;20492;-81
2023/08/09 01:05:42;;;;;;;1.97;1.20;;;16.40;98.20;;;;;;5052346;28;20832;-81
2023/08/09 01:08:14;;;;;;;1.50;1.00;;;16.40;98.20;;;;;;5047373;28;20485;-80
2023/08/09 01:10:46;;;;;;;1.57;1.00;;;16.40;98.20;;;;;;5059220;28;20465;-81
2023/08/09 01:13:19;;;;;;;1.50;1.00;;;16.40;98.20;;;;;;5030404;28;20482;-81
2023/08/09 01:15:49;;;;;;;1.50;0.90;;;16.30;98.20;;;;;;5050452;28;20557;-80
2023/08/09 01:18:17;;;;;;;1.60;1.20;;;16.30;98.20;;;;;;5023424;28;20514;-80
2023/08/09 01:20:45;;;;;;;1.50;1.00;;;16.20;98.20;;;;;;5050550;28;21039;-81
2023/08/09 01:23:16;;;;;;;1.50;1.00;;;16.20;98.20;;;;;;5023876;28;20470;-80
2023/08/09 01:25:45;;;;;;;1.53;0.90;;;16.10;98.20;;;;;;5051082;28;20570;-80
2023/08/09 01:28:14;;;;;;;1.50;1.00;;;16.10;98.20;;;;;;5039932;28;20478;-78
2023/08/09 01:30:41;;;;;;;1.50;0.90;;;16.10;98.20;;;;;;5049882;28;20554;-80
2023/08/09 01:33:08;;;;;;;1.57;1.00;;;16.00;98.20;;;;;;5038390;28;20478;-79
2023/08/09 01:35:44;;;;;;;1.53;1.00;;;16.00;98.20;;;;;;5056497;28;20484;-80
2023/08/09 01:38:16;;;;;;;1.50;1.00;;;15.90;98.20;;;;;;5037849;28;20477;-79
2023/08/09 01:40:45;;;;;;;1.50;0.90;;;15.90;98.20;;;;;;5069907;28;20519;-81
2023/08/09 01:43:13;;;;;;;1.50;1.00;;;15.80;98.20;;;;;;5048606;28;20486;-80
2023/08/09 01:45:41;;;;;;;1.50;0.90;;;15.80;98.20;;;;;;5053622;28;20470;-81
2023/08/09 01:48:08;;;;;;;1.53;1.00;;;15.70;98.20;;;;;;5036499;28;20474;-80
2023/08/09 01:50:35;;;;;;;1.50;1.00;;;15.70;98.20;;;;;;5048464;28;20458;-80
2023/08/09 01:53:02;;;;;;;1.50;1.00;;;15.70;98.20;;;;;;5044518;28;20566;-80
2023/08/09 01:55:29;;;;;;;1.53;0.93;;;15.70;98.20;;;;;;5048102;28;20718;-80
2023/08/09 01:57:57;;;;;;;1.50;0.90;;;15.70;98.20;;;;;;5039280;28;20482;-80
2023/08/09 02:00:24;;;;;;;1.50;0.93;;;15.70;98.20;;;;;;5056154;28;20466;-80
2023/08/09 02:02:52;;;;;;;1.53;1.00;;;15.70;98.20;;;;;;5044546;28;20559;-80
2023/08/09 02:05:20;;;;;;;1.50;0.90;;;15.70;98.20;;;;;;5049563;28;20461;-80
2023/08/09 02:07:47;;;;;;;1.50;1.00;;;15.70;98.20;;;;;;5047358;28;20512;-80
2023/08/09 02:10:14;;;;;;;1.50;0.90;;;15.60;98.20;;;;;;5056545;28;20458;-80
2023/08/09 02:12:47;;;;;;;1.57;1.00;;;15.70;98.20;;;;;;5037991;28;20490;-80
2023/08/09 02:15:16;;;;;;;1.53;1.00;;;15.70;98.20;;;;;;5055411;28;20527;-80
2023/08/09 02:17:43;;;;;;;1.50;1.00;;;15.70;98.20;;;;;;5045050;28;20484;-81
2023/08/09 02:20:11;;;;;;;1.50;1.00;;;15.70;98.20;;;;;;5051865;28;20489;-80
2023/08/09 02:22:39;;;;;;;1.53;1.00;;;15.70;98.20;;;;;;5040600;28;21020;-80
2023/08/09 02:25:06;;;;;;;1.80;1.20;;;15.60;98.20;;;;;;5050232;28;21002;-80
2023/08/09 02:27:33;;;;;;;1.50;1.00;;;15.60;98.20;;;;;;5042762;28;20486;-79
2023/08/09 02:30:03;;;;;;;1.57;1.00;;;15.70;98.20;;;;;;5049477;28;20461;-80
2023/08/09 02:32:32;;;;;;;1.57;1.00;;;15.70;98.20;;;;;;5036820;28;21095;-80
2023/08/09 02:34:59;;;;;;;1.60;1.00;;;15.70;98.20;;;;;;5052105;28;20517;-79
2023/08/09 02:37:25;;;;;;;1.50;1.00;;;15.70;98.20;;;;;;5042398;28;20486;-80
2023/08/09 02:39:52;;;;;;;1.50;1.00;;;15.70;98.20;;;;;;5059543;28;20465;-81
2023/08/09 02:42:19;;;;;;;1.50;0.90;;;15.70;98.20;;;;;;5047980;28;20473;-79
2023/08/09 02:44:45;;;;;;;1.50;1.00;;;15.70;98.20;;;;;;5051850;28;20459;-81
2023/08/09 02:47:12;;;;;;;1.50;0.93;;;15.70;98.20;;;;;;5043487;28;20868;-81
2023/08/09 02:49:41;;;;;;;1.50;1.00;;;15.70;98.20;;;;;;5056364;28;20464;-81
2023/08/09 02:52:07;;;;;;;1.53;0.90;;;15.70;98.20;;;;;;5040367;28;20473;-80
2023/08/09 02:54:35;;;;;;;1.53;1.00;;;15.70;98.20;;;;;;5058182;28;20776;-81
2023/08/09 02:57:02;;;;;;;1.57;1.00;;;15.70;98.20;;;;;;5042996;28;21047;-80
2023/08/09 02:59:29;;;;;;;1.57;1.00;;;15.70;98.20;;;;;;5057737;28;20557;-79
2023/08/09 03:01:56;;;;;;;1.60;1.00;;;15.70;98.20;;;;;;5042798;28;21004;-80
2023/08/09 03:04:23;;;;;;;1.53;1.00;;;15.70;98.20;;;;;;5059202;28;20462;-80
2023/08/09 03:06:51;;;;;;;1.50;0.90;;;15.70;98.20;;;;;;5050972;28;20485;-80
2023/08/09 03:09:17;;;;;;;1.53;1.00;;;15.70;98.20;;;;;;5052957;28;20694;-80
2023/08/09 03:11:44;;;;;;;1.50;1.00;;;15.70;98.20;;;;;;5043086;28;20573;-80
2023/08/09 03:14:13;;;;;;;1.57;1.00;;;15.70;98.20;;;;;;5052841;28;20469;-81
2023/08/09 03:16:40;;;;;;;1.57;1.00;;;15.70;98.20;;;;;;5042129;28;20565;-80
2023/08/09 03:19:07;;;;;;;1.53;1.00;;;15.70;98.20;;;;;;5067338;28;20465;-80
2023/08/09 03:21:34;;;;;;;1.53;1.00;;;15.70;98.20;;;;;;5053832;28;20540;-81
2023/08/09 03:24:02;;;;;;;1.50;1.00;;;15.70;98.20;;;;;;5062460;28;20957;-80
2023/08/09 03:26:29;;;;;;;1.80;1.50;;;15.70;98.20;;;;;;5042770;28;20854;-81
2023/08/09 03:28:56;;;;;;;1.50;0.90;;;15.70;98.20;;;;;;5067212;28;20457;-80
2023/08/09 03:31:22;;;;;;;1.57;0.90;;;15.70;98.20;;;;;;5050043;28;20733;-81
2023/08/09 03:33:49;;;;;;;1.53;1.00;;;15.70;98.20;;;;;;5053511;28;20461;-81
2023/08/09 03:36:16;;;;;;;1.50;0.90;;;15.70;98.20;;;;;;5050407;28;20488;-82
2023/08/09 03:38:43;;;;;;;1.60;1.00;;;15.70;98.20;;;;;;5055756;28;20470;-80
2023/08/09 03:41:11;;;;;;;1.57;1.07;;;15.70;98.20;;;;;;5043487;28;20477;-80
2023/08/09 03:43:38;;;;;;;1.53;1.00;;;15.70;98.20;;;;;;5050641;28;20482;-81
2023/08/09 03:46:05;;;;;;;1.53;0.93;;;15.70;98.20;;;;;;5042712;28;20469;-81
2023/08/09 03:48:32;;;;;;;1.50;0.90;;;15.70;98.20;;;;;;5051136;28;20469;-81
2023/08/09 03:50:59;;;;;;;1.50;1.00;;;15.70;98.20;;;;;;5045972;28;20461;-82
2023/08/09 03:53:26;;;;;;;1.50;0.90;;;15.70;98.20;;;;;;5052974;28;20674;-81
2023/08/09 03:55:52;;;;;;;1.53;1.00;;;15.70;98.20;;;;;;5050148;28;20458;-80
2023/08/09 03:58:21;;;;;;;1.53;1.00;;;15.70;98.20;;;;;;5057854;28;20533;-82
2023/08/09 04:00:48;;;;;;;1.50;1.00;;;15.70;98.20;;;;;;5053072;28;20458;-81
2023/08/09 04:03:15;;;;;;;1.50;0.90;;;15.70;98.20;;;;;;5052008;28;20495;-82
2023/08/09 04:05:41;;;;;;;1.57;1.00;;;15.70;98.20;;;;;;5053116;28;20497;-82
2023/08/09 04:08:08;;;;;;;1.50;0.97;;;15.70;98.20;;;;;;5033812;28;20473;-80
2023/08/09 04:10:36;;;;;;;1.53;1.00;;;15.70;98.20;;;;;;5054581;28;21007;-82
2023/08/09 04:13:03;;;;;;;1.50;0.90;;;15.70;98.20;;;;;;5033553;28;20489;-80
2023/08/09 04:15:31;;;;;;;1.53;1.00;;;15.70;98.20;;;;;;5049679;28;20473;-83
2023/08/09 04:17:58;;;;;;;1.50;0.90;;;15.70;98.20;;;;;;5037395;28;20478;-83
2023/08/09 04:20:26;;;;;;;1.50;0.90;;;15.70;98.20;;;;;;5050926;28;20471;-82
2023/08/09 04:22:54;;;;;;;1.53;1.00;;;15.60;98.20;;;;;;5036433;28;20546;-83
2023/08/09 04:25:21;;;;;;;1.50;1.00;;;15.60;98.20;;;;;;5054553;28;20902;-81
2023/08/09 04:27:48;;;;;;;1.57;1.00;;;15.60;98.20;;;;;;5044280;28;20592;-83
2023/08/09 04:30:15;;;;;;;1.57;1.00;;;15.60;98.20;;;;;;5054840;28;20941;-83
2023/08/09 04:32:44;;;;;;;1.50;1.00;;;15.50;98.20;;;;;;5049127;28;21037;-83
2023/08/09 04:35:11;;;;;;;1.57;1.00;;;15.50;98.20;;;;;;5049196;28;20486;-80
2023/08/09 04:37:38;;;;;;;1.53;1.00;;;15.50;98.20;;;;;;5043028;28;21163;-81
2023/08/09 04:40:10;;;;;;;1.60;1.00;;;15.40;98.20;;;;;;5057185;28;20462;-81
2023/08/09 04:42:37;;;;;;;1.53;1.00;;;15.40;98.20;;;;;;5032475;28;21048;-82
2023/08/09 04:45:07;;;;;;;1.50;0.90;;;15.50;98.20;;;;;;5055031;28;20895;-82
2023/08/09 04:47:34;;;;;;;1.60;1.00;;;15.50;98.20;;;;;;5043508;28;20489;-82
2023/08/09 04:50:03;;;;;;;1.53;1.00;;;15.50;98.20;;;;;;5056341;28;20478;-81
2023/08/09 04:52:29;;;;;;;1.50;1.00;;;15.50;98.20;;;;;;5036907;28;20508;-82
2023/08/09 04:54:56;;;;;;;1.53;1.00;;;15.60;98.20;;;;;;5059668;28;20488;-82
2023/08/09 04:57:23;;;;;;;1.53;1.00;;;15.60;98.20;;;;;;5044570;28;20478;-82
2023/08/09 04:59:50;;;;;;;1.50;1.00;;;15.60;98.20;;;;;;5056136;28;20542;-82
2023/08/09 05:02:17;;;;;;;1.50;0.90;;;15.60;98.20;;;;;;5041782;28;20549;-82
2023/08/09 05:04:44;;;;;;;1.50;1.00;;;15.70;98.20;;;;;;5052083;28;20462;-82
2023/08/09 05:07:12;;;;;;;1.53;1.00;;;15.70;98.20;;;;;;5037182;28;20571;-82
2023/08/09 05:09:39;;;;;;;1.50;0.90;;;15.70;98.20;;;;;;5054076;28;20458;-82
2023/08/09 05:12:06;;;;;;;1.50;0.90;;;15.80;98.20;;;;;;5045397;28;20488;-82
2023/08/09 05:14:33;;;;;;;1.50;0.90;;;15.80;98.20;;;;;;5054117;28;20741;-82
2023/08/09 05:17:00;;;;;;;1.53;0.90;;;15.80;98.20;;;;;;5037845;28;20486;-82
2023/08/09 05:19:26;;;;;;;1.57;1.00;;;15.80;98.20;;;;;;5054660;28;20489;-83
2023/08/09 05:21:53;;;;;;;1.50;0.90;;;15.90;98.20;;;;;;5039824;28;20506;-84
2023/08/09 05:24:21;;;;;;;1.53;1.00;;;15.90;98.20;;;;;;5054737;28;20928;-83
2023/08/09 05:26:48;;;;;;;1.50;0.97;;;16.00;98.20;;;;;;5043017;28;20482;-83
2023/08/09 05:29:15;;;;;;;1.50;0.90;;;16.00;98.20;;;;;;5050214;28;20540;-83
2023/08/09 05:31:42;;;;;;;1.50;0.90;;;16.00;98.20;;;;;;5041997;28;20489;-84
2023/08/09 05:34:09;;;;;;;1.50;0.97;;;16.10;98.20;;;;;;5051048;28;20453;-83
2023/08/09 05:36:36;;;;;;;1.57;0.90;;;16.10;98.20;;;;;;5044510;28;20474;-82
2023/08/09 05:39:03;;;;;;;1.53;0.90;;;16.20;98.20;;;;;;5055488;28;20969;-84
2023/08/09 05:41:31;;;;;;;1.57;0.90;;;16.30;98.20;;;;;;5044262;28;20918;-84
2023/08/09 05:43:58;;;;;;;1.57;0.90;;;16.30;98.20;;;;;;5054911;28;20581;-84
2023/08/09 05:46:25;;;;;;;1.53;0.90;;;16.40;98.20;;;;;;5044794;28;20485;-84
2023/08/09 05:48:52;;;;;;;1.50;0.90;;;16.50;98.20;;;;;;5056192;28;20564;-83
2023/08/09 05:51:18;;;;;;;1.57;0.90;;;16.50;98.20;;;;;;5043601;28;20518;-83
2023/08/09 05:53:45;;;;;;;1.53;0.90;;;16.60;98.20;;;;;;5054490;28;20656;-84
2023/08/09 05:56:12;;;;;;;1.60;1.00;;;16.70;98.20;;;;;;5042939;28;20474;-83
2023/08/09 05:58:40;;;;;;;1.60;1.00;;;16.80;98.20;;;;;;5056741;28;20482;-83
2023/08/09 06:01:08;;;;;;;1.50;1.00;;;16.90;98.20;;;;;;5040862;28;20470;-83
2023/08/09 06:03:38;;;;;;;1.57;0.93;;;16.90;98.20;;;;;;5042258;28;20795;-83
2023/08/09 06:06:06;;;;;;;1.53;0.90;;;16.90;98.20;;;;;;5049781;28;20465;-83
2023/08/09 06:08:33;;;;;;;1.53;1.00;;;17.00;98.20;;;;;;5048023;28;20458;-83
2023/08/09 06:10:59;;;;;;;1.50;0.90;;;17.00;98.20;;;;;;5047037;28;20505;-84
2023/08/09 06:13:26;;;;;;;1.50;0.90;;;17.10;98.20;;;;;;5058301;28;20490;-83
2023/08/09 06:15:55;;;;;;;1.57;0.90;;;17.20;98.20;;;;;;5048652;28;20468;-83
2023/08/09 06:18:21;;;;;;;1.50;0.90;;;17.40;98.20;;;;;;5054822;28;20493;-84
2023/08/09 06:20:49;;;;;;;1.57;0.90;;;17.60;98.20;;;;;;5054110;28;20464;-83
2023/08/09 06:23:15;;;;;;;1.53;0.90;;;17.80;98.20;;;;;;5058450;28;20515;-83
2023/08/09 06:25:49;;;;;;;1.60;0.90;;;17.90;98.20;;;;;;5059131;28;20477;-84
2023/08/09 06:28:17;;;;;;;1.53;0.90;;;18.10;98.20;;;;;;5031229;28;20508;-83
2023/08/09 06:30:43;;;;;;;1.50;0.90;;;18.20;98.20;;;;;;5056280;28;20485;-84
2023/08/09 06:33:12;;;;;;;1.50;0.90;;;18.30;98.20;;;;;;5043406;28;20521;-83
2023/08/09 06:35:39;;;;;;;1.50;0.90;;;18.40;98.20;;;;;;5057000;28;20529;-83
2023/08/09 06:38:05;;;;;;;1.60;1.17;;;18.60;98.20;;;;;;5041111;28;21070;-84
2023/08/09 06:40:33;;;;;;;1.50;0.90;;;18.80;98.20;;;;;;5057099;28;20961;-84
2023/08/09 06:43:00;;;;;;;1.53;0.90;;;18.90;98.20;;;;;;5043587;28;20474;-84
2023/08/09 06:45:27;;;;;;;1.57;0.90;;;18.90;98.20;;;;;;5061917;28;20461;-84
2023/08/09 06:47:55;;;;;;;1.57;0.90;;;18.80;98.20;;;;;;5047697;28;20509;-84
2023/08/09 06:50:24;;;;;;;1.50;0.90;;;18.70;98.20;;;;;;5062852;28;20952;-83
2023/08/09 06:52:51;;;;;;;1.53;0.90;;;18.60;98.20;;;;;;5046660;28;20504;-84
2023/08/09 06:55:19;;;;;;;1.50;0.90;;;18.60;98.20;;;;;;5063909;28;20488;-84
2023/08/09 06:57:45;;;;;;;1.50;0.90;;;18.50;98.20;;;;;;5052438;28;20482;-84
2023/08/09 07:00:16;;;;;;;1.50;0.90;;;18.40;98.20;;;;;;5059014;28;20476;-84
2023/08/09 07:02:43;;;;;;;1.50;0.90;;;18.40;98.20;;;;;;5046645;28;20481;-84
2023/08/09 07:05:15;;;;;;;1.57;0.90;;;18.40;98.20;;;;;;5061992;28;20457;-85
2023/08/09 07:07:44;;;;;;;1.50;0.90;;;18.50;98.20;;;;;;5034167;28;20491;-85
2023/08/09 07:10:11;;;;;;;1.50;0.90;;;18.70;98.20;;;;;;5062340;28;20454;-84
2023/08/09 07:12:38;;;;;;;1.50;0.90;;;18.70;98.20;;;;;;5040152;28;20478;-83
2023/08/09 07:15:08;;;;;;;1.53;0.90;;;18.80;98.20;;;;;;5063409;28;20869;-85
2023/08/09 07:17:34;;;;;;;1.50;0.90;;;18.80;98.20;;;;;;5048197;28;20508;-82
2023/08/09 07:20:01;;;;;;;1.53;0.90;;;18.80;98.20;;;;;;5058605;28;20459;-84
2023/08/09 07:22:28;;;;;;;1.50;0.90;;;18.90;98.20;;;;;;5057517;28;20529;-84
2023/08/09 07:24:57;;;;;;;1.53;0.90;;;19.10;98.20;;;;;;5061515;28;20488;-83
2023/08/09 07:27:23;;;;;;;1.57;0.90;;;19.30;98.20;;;;;;5054729;28;20489;-84
2023/08/09 07:29:50;;;;;;;1.50;0.90;;;19.60;98.20;;;;;;5059782;28;20462;-84
2023/08/09 07:32:18;;;;;;;1.60;1.00;;;19.90;98.20;;;;;;5050267;28;20479;-83
2023/08/09 07:34:45;;;;;;;1.50;0.90;;;20.10;98.20;;;;;;5060666;28;20552;-84
2023/08/09 07:37:11;;;;;;;1.53;0.90;;;20.40;98.20;;;;;;5052584;28;20546;-83
2023/08/09 07:39:38;;;;;;;1.50;0.90;;;20.60;98.20;;;;;;5061381;28;20469;-83
2023/08/09 07:42:06;;;;;;;1.53;0.90;;;20.60;98.20;;;;;;5060778;28;20577;-84
2023/08/09 07:44:33;;;;;;;1.53;0.90;;;20.60;98.20;;;;;;5057999;28;20492;-83
2023/08/09 07:47:00;;;;;;;1.53;0.90;;;20.70;98.20;;;;;;5057694;28;20488;-84
2023/08/09 07:49:27;;;;;;;1.50;0.90;;;20.90;98.20;;;;;;5051030;28;20469;-83
2023/08/09 07:51:54;;;;;;;1.53;0.90;;;21.10;98.20;;;;;;5049350;28;20557;-82
2023/08/09 07:54:20;;;;;;;3.13;2.83;;;21.20;98.20;;;;;;5060179;28;20457;-83
2023/08/09 07:56:47;;;;;;;1.50;0.90;;;21.30;98.20;;;;;;5050194;28;20494;-85
2023/08/09 07:59:16;;;;;;;1.60;1.03;;;21.30;98.20;;;;;;5052284;28;20761;-85
2023/08/09 08:01:42;;;;;;;1.50;0.90;;;21.20;98.20;;;;;;5037578;28;20829;-84
2023/08/09 08:04:09;;;;;;;1.50;0.90;;;21.00;98.20;;;;;;5059105;28;20573;-85
2023/08/09 08:06:36;;;;;;;1.53;0.90;;;20.90;98.20;;;;;;5048550;28;20478;-83
2023/08/09 08:09:03;;;;;;;1.57;0.90;;;20.70;98.20;;;;;;5056892;28;20469;-84
2023/08/09 08:11:30;;;;;;;1.53;0.90;;;20.60;98.20;;;;;;5045346;28;20520;-84
2023/08/09 08:13:58;;;;;;;1.50;0.90;;;20.50;98.20;;;;;;5053807;28;20454;-84
2023/08/09 08:16:26;;;;;;;1.57;0.90;;;20.40;98.20;;;;;;5052775;28;20481;-82
2023/08/09 08:18:53;;;;;;;1.50;0.90;;;20.30;98.20;;;;;;5059351;28;20514;-82
2023/08/09 08:21:20;;;;;;;1.50;0.90;;;20.30;98.20;;;;;;5046795;28;20493;-83
2023/08/09 08:23:47;;;;;;;1.57;0.90;;;20.50;98.20;;;;;;5060960;28;20493;-82
2023/08/09 08:26:15;;;;;;;1.50;0.90;;;20.70;98.20;;;;;;5049999;28;20479;-84
2023/08/09 08:28:41;;;;;;;1.53;0.90;;;21.00;98.20;;;;;;5056393;28;20467;-82
2023/08/09 08:31:08;;;;;;;1.50;0.90;;;21.20;98.20;;;;;;5037006;28;22348;-84
2023/08/09 08:33:37;;;;;;;1.50;0.80;;;21.40;98.20;;;;;;5053471;28;20481;-82
2023/08/09 08:36:04;;;;;;;1.57;0.90;;;21.60;98.20;;;;;;5041991;28;20461;-83
2023/08/09 08:38:31;;;;;;;1.50;0.90;;;21.80;98.20;;;;;;5056950;28;20549;-83
2023/08/09 08:40:58;;;;;;;1.60;0.90;;;22.10;98.20;;;;;;5047912;28;20458;-84
2023/08/09 08:43:25;;;;;;;1.50;0.90;;;22.30;98.20;;;;;;5059439;28;20481;-83
2023/08/09 08:46:13;;;;;;;1.50;0.90;;;22.40;98.20;;;;;;5061472;28;21025;-82
2023/08/09 08:48:46;;;;;;;1.50;0.90;;;22.60;98.20;;;;;;5046000;28;20477;-85
2023/08/09 08:51:13;;;;;;;1.50;0.90;;;22.60;98.20;;;;;;5044230;28;20494;-82
2023/08/09 08:53:41;;;;;;;1.50;0.90;;;22.70;98.20;;;;;;5061538;28;20461;-83
2023/08/09 08:56:08;;;;;;;1.50;0.90;;;22.70;98.20;;;;;;5047127;28;20488;-82
2023/08/09 08:58:35;;;;;;;1.53;0.87;;;22.80;98.20;;;;;;5061263;28;20458;-83
2023/08/09 09:01:04;;;;;;;1.50;0.80;;;23.00;98.20;;;;;;5050505;28;20876;-82
2023/08/09 09:03:30;;;;;;;1.50;0.90;;;23.20;98.20;;;;;;5052292;28;20485;-80
2023/08/09 09:05:59;;;;;;;1.50;0.90;;;23.30;96.50;;;;;;5049648;28;20473;-82
2023/08/09 09:08:26;;;;;;;1.53;0.90;;;23.40;94.90;;;;;;5060223;28;20472;-81
2023/08/09 09:10:54;;;;;;;1.50;0.90;;;23.40;94.80;;;;;;5050045;28;20473;-81
2023/08/09 09:13:26;;;;;;;1.50;0.80;;;23.30;94.80;;;;;;5057803;28;20473;-81
2023/08/09 09:15:54;;;;;;;1.50;0.80;;;23.20;96.00;;;;;;5052989;28;20904;-81
2023/08/09 09:18:21;;;;;;;1.50;0.80;;;23.10;95.80;;;;;;5059432;28;20956;-83
2023/08/09 09:20:49;;;;;;;1.50;0.80;;;23.20;97.60;;;;;;5047796;28;20524;-83
2023/08/09 09:23:28;;;;;;;1.50;0.83;;;23.20;96.20;;;;;;5057648;28;20486;-83
2023/08/09 09:26:03;;;;;;;1.50;0.80;;;23.00;97.00;;;;;;5048207;28;20462;-84
2023/08/09 09:28:30;;;;;;;1.50;0.90;;;22.90;97.40;;;;;;5053220;28;20602;-83
2023/08/09 09:31:00;;;;;;;1.50;0.90;;;22.80;98.20;;;;;;5047778;28;20535;-83
2023/08/09 09:33:34;;;;;;;1.50;0.90;;;22.70;98.20;;;;;;5062607;28;20846;-84
2023/08/09 09:36:01;;;;;;;1.50;0.90;;;22.80;97.60;;;;;;5047086;28;20466;-84
2023/08/09 09:38:29;;;;;;;1.50;0.80;;;23.00;95.90;;;;;;5059830;28;20498;-83
2023/08/09 09:40:57;;;;;;;1.50;0.90;;;23.20;95.00;;;;;;5052462;28;20469;-82
2023/08/09 09:43:24;;;;;;;1.53;0.90;;;23.40;95.40;;;;;;5061812;28;20540;-81
2023/08/09 09:45:54;;;;;;;1.50;0.90;;;23.60;95.30;;;;;;5053799;28;20477;-82
2023/08/09 09:48:21;;;;;;;1.53;0.90;;;23.90;95.20;;;;;;5067222;28;20457;-84
2023/08/09 09:50:49;;;;;;;1.50;0.80;;;24.10;95.30;;;;;;5053513;28;20871;-82
2023/08/09 09:53:16;;;;;;;1.50;0.90;;;24.30;94.80;;;;;;5060400;28;20878;-80
2023/08/09 09:55:45;;;;;;;1.50;0.83;;;24.50;95.60;;;;;;5061675;28;20960;-80
2023/08/09 09:58:13;;;;;;;1.50;0.80;;;24.70;93.00;;;;;;5035689;28;20566;-84
2023/08/09 10:00:44;;;;;;;1.53;0.80;;;24.80;92.50;;;;;;5064349;28;20465;-84
2023/08/09 10:03:13;;;;;;;1.50;0.80;;;24.70;91.40;;;;;;5058344;28;20492;-82
2023/08/09 10:05:41;;;;;;;1.57;0.90;;;24.70;91.40;;;;;;5063163;28;20470;-82
2023/08/09 10:08:11;;;;;;;1.50;0.90;;;24.80;90.30;;;;;;5056960;28;20544;-83
2023/08/09 10:10:40;;;;;;;1.50;0.83;;;24.90;88.50;;;;;;5065559;28;20457;-80
2023/08/09 10:13:09;;;;;;;1.50;0.80;;;25.10;87.70;;;;;;5061006;28;20534;-83
2023/08/09 10:15:41;;;;;;;1.50;0.80;;;25.30;86.40;;;;;;5070559;28;20457;-83
2023/08/09 10:18:11;;;;;;;1.50;0.80;;;25.40;89.60;;;;;;5055635;28;20477;-84
2023/08/09 10:20:44;;;;;;;1.50;0.80;;;25.50;86.80;;;;;;5066099;28;20561;-82
2023/08/09 10:23:24;;;;;;;1.50;0.90;;;25.50;86.40;;;;;;5058913;28;20572;-82
2023/08/09 10:25:52;;;;;;;1.50;0.80;;;25.50;87.20;;;;;;5062898;28;20917;-81
2023/08/09 10:28:49;;;;;;;1.50;0.80;;;25.40;87.80;;;;;;5070986;28;20861;-83
2023/08/09 10:31:48;;;;;;;1.50;0.80;;;25.40;85.50;;;;;;5047330;28;20508;-85
2023/08/09 10:34:15;;;;;;;1.50;0.80;;;25.50;85.10;;;;;;5058014;28;20971;-84
2023/08/09 10:36:43;;;;;;;1.50;0.80;;;25.70;86.00;;;;;;5049569;28;20861;-82
2023/08/09 10:39:13;;;;;;;1.50;0.80;;;25.80;85.50;;;;;;5055862;28;20552;-83
2023/08/09 10:41:54;;;;;;;1.50;0.90;;;25.90;84.60;;;;;;5051460;28;20893;-84
2023/08/09 10:44:33;;;;;;;1.50;0.80;;;26.10;81.90;;;;;;5066670;28;20550;-83
2023/08/09 10:47:03;;;;;;;1.57;0.97;;;26.20;79.10;;;;;;5057256;28;20565;-82
2023/08/09 10:49:34;;;;;;;1.50;0.80;;;26.20;82.00;;;;;;5064918;28;20815;-83
2023/08/09 10:52:12;;;;;;;1.50;0.80;;;26.10;81.60;;;;;;5053890;28;20492;-84
2023/08/09 10:54:39;;;;;;;1.47;0.80;;;25.90;83.00;;;;;;5064135;28;20489;-82
2023/08/09 10:57:09;;;;;;;1.50;0.80;;;25.80;85.40;;;;;;5059129;28;20479;-81
2023/08/09 10:59:39;;;;;;;1.50;0.80;;;25.80;84.20;;;;;;5061362;28;20464;-83
2023/08/09 11:02:06;;;;;;;1.50;0.80;;;25.70;82.90;;;;;;5055324;28;20558;-82
2023/08/09 11:04:34;;;;;;;1.50;0.83;;;25.60;83.90;;;;;;5055414;28;20513;-83
2023/08/09 11:07:02;;;;;;;1.50;0.80;;;25.40;84.20;;;;;;5058717;28;20504;-82
2023/08/09 11:09:31;;;;;;;1.50;0.80;;;25.40;84.10;;;;;;5066271;28;20522;-82
2023/08/09 11:11:59;;;;;;;1.50;0.90;;;25.30;83.70;;;;;;5052653;28;20590;-81
2023/08/09 11:14:26;;;;;;;1.50;0.90;;;25.30;85.70;;;;;;5061992;28;20461;-83
2023/08/09 11:16:55;;;;;;;1.50;0.90;;;25.30;85.50;;;;;;5050742;28;20481;-82
2023/08/09 11:19:22;;;;;;;1.50;0.80;;;25.40;83.00;;;;;;5069029;28;20519;-82
2023/08/09 11:21:52;;;;;;;1.50;0.80;;;25.40;81.30;;;;;;5054448;28;20477;-84
2023/08/09 11:24:20;;;;;;;1.50;0.80;;;25.50;81.30;;;;;;5066747;28;20481;-82
2023/08/09 11:26:54;;;;;;;1.50;0.80;;;25.50;85.20;;;;;;5050553;28;21010;-82
2023/08/09 11:29:23;;;;;;;1.47;0.80;;;25.70;82.60;;;;;;5070844;28;20475;-83
2023/08/09 11:31:53;;;;;;;1.47;0.80;;;25.80;81.90;;;;;;5056177;28;20477;-82
2023/08/09 11:34:23;;;;;;;1.50;0.80;;;25.90;81.30;;;;;;5068336;28;20459;-82
2023/08/09 11:36:51;;;;;;;1.50;0.90;;;26.10;82.30;;;;;;5058091;28;20484;-82
2023/08/09 11:39:20;;;;;;;1.50;0.90;;;26.30;83.30;;;;;;5073442;28;20865;-84
2023/08/09 11:41:57;;;;;;;1.50;0.90;;;26.50;83.20;;;;;;5015382;28;1103288;-82
2023/08/09 11:44:30;;;;;;;1.50;0.80;;;26.60;80.20;;;;;;5074165;28;20226;-82
2023/08/09 11:46:59;;;;;;;1.47;0.80;;;26.50;78.80;;;;;;5063004;28;20487;-83
2023/08/09 11:49:27;;;;;;;1.50;0.80;;;26.30;80.30;;;;;;5064054;28;20555;-83
2023/08/09 11:51:54;;;;;;;1.50;0.80;;;26.20;82.10;;;;;;5056311;28;20508;-86
2023/08/09 11:54:22;;;;;;;1.50;0.80;;;26.20;79.90;;;;;;5074375;28;20739;-84
2023/08/09 11:56:50;;;;;;;1.50;0.80;;;26.10;81.70;;;;;;5053852;28;20504;-81
2023/08/09 11:59:19;;;;;;;1.47;0.80;;;26.10;83.30;;;;;;5070455;28;20469;-84
2023/08/09 12:01:48;;;;;;;1.47;0.80;;;25.90;81.60;;;;;;5058499;28;20477;-83
2023/08/09 12:04:17;;;;;;;1.50;0.80;;;25.80;83.60;;;;;;5061765;28;20485;-83
2023/08/09 12:06:47;;;;;;;1.50;0.80;;;25.60;82.90;;;;;;5055318;28;20568;-83
2023/08/09 12:09:34;;;;;;;1.50;0.93;;;25.60;83.40;;;;;;5064486;28;20561;-82
2023/08/09 12:12:05;;;;;;;1.43;0.80;;;25.60;84.50;;;;;;5050690;28;21040;-84
2023/08/09 12:14:33;;;;;;;1.50;0.80;;;25.70;82.20;;;;;;5063828;28;20492;-81
2023/08/09 12:17:13;;;;;;;1.50;0.80;;;25.80;83.70;;;;;;5046087;28;20561;-82
2023/08/09 12:19:40;;;;;;;1.50;0.80;;;25.80;82.90;;;;;;5059115;28;20485;-81
2023/08/09 12:22:08;;;;;;;1.50;0.80;;;25.80;81.80;;;;;;5058279;28;20485;-83
2023/08/09 12:24:35;;;;;;;1.50;0.80;;;25.80;84.90;;;;;;5057579;28;20505;-83
2023/08/09 12:27:03;;;;;;;1.50;0.80;;;25.90;80.70;;;;;;5053866;28;20508;-82
2023/08/09 12:29:30;;;;;;;1.50;0.80;;;25.90;81.60;;;;;;5068073;28;20480;-82
2023/08/09 12:32:00;;;;;;;1.50;0.80;;;26.00;82.20;;;;;;5050350;28;20486;-83
2023/08/09 12:34:30;;;;;;;1.43;0.80;;;26.20;81.30;;;;;;5066610;28;20590;-84
2023/08/09 12:36:57;;;;;;;1.50;0.80;;;26.30;81.90;;;;;;5048678;28;20480;-83
2023/08/09 12:39:26;;;;;;;1.40;0.80;;;26.40;82.60;;;;;;5062236;28;21039;-82
2023/08/09 12:41:53;;;;;;;1.50;0.80;;;26.50;82.00;;;;;;5047210;28;20474;-82
2023/08/09 12:44:20;;;;;;;1.40;0.80;;;26.50;80.40;;;;;;5067392;28;20462;-83
2023/08/09 12:46:47;;;;;;;1.50;0.90;;;26.40;80.00;;;;;;5060611;28;20480;-83
2023/08/09 12:49:14;;;;;;;1.40;0.80;;;26.30;80.90;;;;;;5062980;28;20535;-83
2023/08/09 12:51:41;;;;;;;1.50;0.80;;;26.20;83.50;;;;;;5055507;28;20481;-83
2023/08/09 12:54:10;;;;;;;1.43;0.80;;;26.10;82.80;;;;;;5061558;28;20469;-83